Latest Weather Observations for Lockhart River

IDQ60801

Issued at 8:02 am EST Friday 23 June 2017 (issued every 30 minutes, with the page automatically refreshed every 10 minutes)

About weather observations | Map of weather stations | Latest weather observations for QLD | Other Formats
Station Details ID: 028008 Name: LOCKHART RIVER AIRPORT Lat: -12.79 Lon: 143.30 Height: 18.5 m
Data from the previous 72 hours. | See also: Recent months at Lockhart River
Date/Time
EST
Temp
°C
App
Temp
°C
Dew
Point
°C
Rel
Hum
%
Delta-T
°C
Wind Press
QNH
hPa
Press
MSL
hPa
Rain since
9am
mm
Dir  Spd
km/h
Gust
km/h
Spd
kts
Gust
kts
23/08:00am 24.0 25.4 17.7 68 3.9 ESE 7 28 4 15 1015.2 1015.2 0.4
23/07:30am 23.5 25.1 17.9 71 3.5 ESE 6 30 3 16 1014.9 1014.9 0.4
23/07:00am 23.3 23.5 17.7 71 3.5 SE 13 32 7 17 1014.7 1014.7 0.4
23/06:30am 22.8 25.9 18.6 77 2.6 CALM 0 13 0 7 1014.5 1014.5 0.4
23/06:00am 22.9 25.6 18.7 77 2.7 SE 2 26 1 14 1014.5 1014.5 0.4
23/05:30am 22.8 25.9 18.6 77 2.6 CALM 0 20 0 11 1014.2 1014.2 0.4
23/05:00am 22.4 25.2 18.8 80 2.3 SE 2 28 1 15 1014.0 1014.0 0.4
23/04:30am 22.7 25.9 18.9 79 2.4 CALM 0 24 0 13 1014.0 1014.0 0.4
23/04:00am 22.7 26.0 19.1 80 2.3 CALM 0 24 0 13 1013.9 1013.9 0.4
23/03:30am 22.5 26.2 19.9 85 1.7 CALM 0 0 0 0 1014.1 1014.1 0.4
23/03:00am 22.5 26.5 20.6 89 1.2 CALM 0 0 0 0 1014.2 1014.2 0.4
23/02:30am 22.6 26.5 20.3 87 1.5 CALM 0 7 0 4 1014.3 1014.3 0.2
23/02:00am 22.9 25.0 20.2 85 1.7 SE 9 26 5 14 1014.3 1014.3 0.2
23/01:30am 22.9 26.4 20.4 86 1.6 SE 2 24 1 13 1014.7 1014.7 0.2
23/01:00am 23.0 24.7 20.1 84 1.9 SE 11 33 6 18 1014.8 1014.8 0.2
23/12:30am 23.2 23.2 19.8 81 2.2 SE 19 33 10 18 1015.0 1015.0 0.2
23/12:00am 23.4 23.4 20.2 82 2.1 SE 20 33 11 18 1015.3 1015.3 0.2
 
Date/Time
EST
Temp
°C
App
Temp
°C
Dew
Point
°C
Rel
Hum
%
Delta-T
°C
Wind Press
QNH
hPa
Press
MSL
hPa
Rain since
9am
mm
Dir  Spd
km/h
Gust
km/h
Spd
kts
Gust
kts
22/11:30pm 23.2 24.1 20.0 82 2.1 SE 15 32 8 17 1015.4 1015.4 0.2
22/11:00pm 23.3 22.8 19.9 81 2.2 SE 22 37 12 20 1015.7 1015.7 0.2
22/10:30pm 23.1 23.5 19.9 82 2.1 SE 17 32 9 17 1015.8 1015.8 0.2
22/10:00pm 23.4 22.7 20.2 82 2.1 SE 24 33 13 18 1015.9 1015.9 0.2
22/09:30pm 23.6 22.5 19.5 78 2.6 SE 24 32 13 17 1016.1 1016.1 0.2
22/09:00pm 23.9 22.7 19.2 75 3.0 SE 24 37 13 20 1016.0 1016.0 0.2
22/08:30pm 23.9 22.1 19.6 77 2.8 SE 28 39 15 21 1016.0 1016.0 0.2
22/08:00pm 23.9 22.8 19.4 76 2.9 SE 24 35 13 19 1015.7 1015.7 0.2
22/07:30pm 23.9 22.6 19.8 78 2.6 SE 26 39 14 21 1015.2 1015.2 0.2
22/07:00pm 23.8 23.4 20.1 80 2.4 SE 22 33 12 18 1014.9 1014.9 0.2
22/06:30pm 23.8 23.8 20.1 80 2.4 ESE 20 33 11 18 1014.8 1014.8 0.2
22/06:00pm 24.6 22.3 20.1 76 2.9 SE 32 44 17 24 1014.4 1014.4 0.2
22/05:35pm 24.6 22.7 20.1 76 2.9 SE 30 48 16 26 1014.2 1014.2 0.2
22/05:30pm 24.6 23.5 20.3 77 2.8 SE 26 37 14 20 1014.1 1014.1 0.2
22/05:00pm 24.7 23.2 20.2 76 2.9 SE 28 35 15 19 1013.9 1013.9 0.2
22/04:46pm 24.9 23.2 19.9 74 3.2 SE 28 48 15 26 1013.8 1013.8 0.2
22/04:30pm 25.0 23.9 20.3 75 3.1 ESE 26 41 14 22 1013.6 1013.6 0.2
22/04:00pm 25.0 23.4 20.7 77 2.8 SE 30 44 16 24 1013.6 1013.6 0.2
22/03:33pm 25.2 22.7 20.2 74 3.3 SE 33 52 18 28 1013.7 1013.7 0.2
22/03:30pm 25.2 22.9 20.5 75 3.1 SE 33 48 18 26 1013.7 1013.7 0.2
22/03:17pm 24.6 22.5 20.5 78 2.7 SE 32 50 17 27 1013.7 1013.7 0.2
22/03:00pm 24.6 22.6 20.7 79 2.6 SE 32 43 17 23 1013.7 1013.7 0.2
22/02:30pm 25.5 23.4 20.5 74 3.3 SE 32 44 17 24 1013.8 1013.8 0.2
22/02:00pm 25.5 25.5 20.1 72 3.5 SE 20 44 11 24 1014.0 1014.0 0.2
22/01:30pm 25.5 23.8 20.5 74 3.3 ESE 30 39 16 21 1014.4 1014.4 0.2
22/01:08pm 25.9 24.3 20.0 70 3.8 ESE 28 50 15 27 1014.4 1014.4 0.2
22/01:00pm 26.0 23.7 20.6 72 3.5 SE 33 46 18 25 1014.5 1014.5 0.2
22/12:40pm 26.6 25.3 20.7 70 3.9 ESE 28 46 15 25 1014.7 1014.7 0.2
22/12:30pm 26.7 25.7 20.5 69 4.1 ESE 26 48 14 26 1014.7 1014.7 0.2
22/12:00pm 26.7 24.5 20.3 68 4.2 SE 32 52 17 28 1015.1 1015.1 0.2
22/11:30am 26.2 24.4 20.3 70 3.9 ESE 30 46 16 25 1015.3 1015.3 0.2
22/11:00am 25.9 22.9 19.8 69 4.0 SE 35 48 19 26 1015.6 1015.6 0.2
22/10:36am 26.4 23.8 19.8 67 4.3 SE 33 52 18 28 1015.7 1015.7 0.0
22/10:30am 26.2 24.5 20.5 71 3.7 ESE 30 43 16 23 1015.7 1015.7 0.0
22/10:01am 25.5 24.0 20.3 73 3.4 ESE 28 46 15 25 1015.9 1015.9 0.0
22/10:00am 25.5 23.6 20.1 72 3.5 ESE 30 46 16 25 1016.0 1016.0 0.0
22/09:30am 25.9 24.9 21.3 76 3.0 ESE 28 46 15 25 1016.1 1016.1 0.0
22/09:00am 25.1 23.9 20.1 74 3.2 ESE 26 41 14 22 1016.2 1016.2 1.8
22/08:30am 24.7 23.6 20.2 76 2.9 SE 26 37 14 20 1016.1 1016.1 1.8
22/08:00am 24.1 25.7 20.0 78 2.6 SE 11 28 6 15 1015.8 1015.8 1.8
22/07:30am 23.7 26.2 20.2 81 2.3 ESE 7 30 4 16 1015.5 1015.5 1.8
22/07:00am 23.5 26.1 20.4 83 2.0 SE 7 30 4 16 1015.1 1015.1 1.8
22/06:30am 23.3 26.0 20.2 83 2.0 SE 6 28 3 15 1014.9 1014.9 1.8
22/06:00am 23.4 26.9 20.3 83 2.0 SE 2 24 1 13 1014.8 1014.8 1.8
22/05:30am 23.4 26.8 20.2 82 2.1 SE 2 26 1 14 1014.6 1014.6 1.8
22/05:00am 23.3 26.7 20.2 83 2.0 SE 2 28 1 15 1014.6 1014.6 1.8
22/04:30am 23.4 27.7 21.1 87 1.5 CALM 0 24 0 13 1014.5 1014.5 1.8
22/04:00am 23.2 27.6 21.3 89 1.2 CALM 0 22 0 12 1014.5 1014.5 1.8
22/03:55am 23.2 27.7 21.5 90 1.1 CALM 0 0 0 0 1014.5 1014.5 1.8
22/03:45am 23.0 26.9 21.1 89 1.2 SE 2 28 1 15 1014.5 1014.5 1.8
22/03:30am 23.1 27.4 21.2 89 1.2 CALM 0 0 0 0 1014.5 1014.5 1.8
22/03:00am 23.0 27.3 21.1 89 1.2 CALM 0 13 0 7 1014.7 1014.7 1.8
22/02:30am 23.0 27.0 20.5 86 1.6 CALM 0 0 0 0 1014.9 1014.9 1.8
22/02:00am 23.1 27.0 20.4 85 1.7 CALM 0 0 0 0 1015.2 1015.2 1.8
22/01:30am 23.0 27.0 20.5 86 1.6 CALM 0 0 0 0 1015.4 1015.4 1.8
22/01:00am 23.2 27.4 20.9 87 1.5 CALM 0 0 0 0 1015.7 1015.7 1.8
22/12:30am 23.4 27.7 21.1 87 1.5 CALM 0 0 0 0 1015.8 1015.8 1.8
22/12:00am 23.3 27.6 21.2 88 1.4 CALM 0 24 0 13 1016.0 1016.0 1.8
 
Date/Time
EST
Temp
°C
App
Temp
°C
Dew
Point
°C
Rel
Hum
%
Delta-T
°C
Wind Press
QNH
hPa
Press
MSL
hPa
Rain since
9am
mm
Dir  Spd
km/h
Gust
km/h
Spd
kts
Gust
kts
21/11:30pm 23.4 27.8 21.3 88 1.4 CALM 0 0 0 0 1016.2 1016.2 1.8
21/11:00pm 23.6 28.0 21.3 87 1.5 CALM 0 19 0 10 1016.4 1016.4 1.8
21/10:30pm 23.5 28.0 21.6 89 1.3 CALM 0 0 0 0 1016.6 1016.6 1.8
21/10:00pm 23.2 27.8 21.8 92 0.9 CALM 0 0 0 0 1016.5 1016.5 1.8
21/09:30pm 22.8 27.4 21.8 94 0.7 CALM 0 0 0 0 1016.5 1016.5 1.8
21/09:00pm 22.7 26.9 21.0 90 1.1 CALM 0 0 0 0 1016.3 1016.3 1.8
21/08:30pm 23.1 26.6 21.9 93 0.8 SE 6 35 3 19 1016.0 1016.0 1.6
21/08:00pm 23.6 28.0 21.3 87 1.5 CALM 0 24 0 13 1015.6 1015.6 1.0
21/07:30pm 23.7 27.6 21.2 86 1.6 SE 2 28 1 15 1015.2 1015.2 1.0
21/07:00pm 23.8 28.2 21.3 86 1.6 CALM 0 13 0 7 1015.0 1015.0 1.0
21/06:30pm 23.8 27.9 21.5 87 1.5 ESE 2 22 1 12 1014.7 1014.7 1.0
21/06:00pm 23.5 28.1 21.8 90 1.1 CALM 0 0 0 0 1014.5 1014.5 1.0
21/05:30pm 23.7 24.6 21.6 88 1.4 ESE 19 33 10 18 1014.3 1014.3 1.0
21/05:00pm 25.0 25.9 21.5 81 2.3 SE 19 30 10 16 1014.0 1014.0 0.2
21/04:30pm 24.2 27.2 21.9 87 1.5 SE 9 24 5 13 1014.0 1014.0 0.2
21/04:00pm 24.9 23.8 21.0 79 2.6 ESE 28 46 15 25 1014.0 1014.0 0.2
21/03:30pm 25.5 24.1 20.5 74 3.3 ESE 28 39 15 21 1013.9 1013.9 0.2
21/03:00pm 26.4 25.8 21.2 73 3.4 ESE 26 41 14 22 1013.7 1013.7 0.2
21/02:30pm 26.7 25.9 21.7 74 3.3 SE 28 37 15 20 1013.7 1013.7 0.2
21/02:08pm 25.8 25.2 20.6 73 3.4 ESE 24 37 13 20 1014.0 1014.0 0.2
21/02:00pm 25.4 25.0 20.9 76 3.0 SE 24 41 13 22 1014.0 1014.0 0.2
21/01:50pm 25.5 26.4 21.6 79 2.6 SSE 19 33 10 18 1014.0 1014.0 0.2
21/01:47pm 25.6 26.8 22.1 81 2.3 SSE 19 32 10 17 1014.1 1014.1 0.2
21/01:35pm 25.5 25.0 21.4 78 2.7 ESE 26 41 14 22 1014.2 1014.2 0.2
21/01:30pm 25.7 25.2 21.4 77 2.9 ESE 26 41 14 22 1014.1 1014.1 0.2
21/01:00pm 25.1 25.8 21.6 81 2.3 ESE 20 33 11 18 1014.5 1014.5 0.2
21/12:36pm 24.6 25.7 22.3 87 1.5 ESE 20 35 11 19 1014.7 1014.7 0.2
21/12:30pm 24.0 24.5 21.9 88 1.4 ESE 22 35 12 19 1014.8 1014.8 0.2
21/12:05pm 25.7 25.6 21.4 77 2.9 SE 24 35 13 19 1014.9 1014.9 0.0
21/12:00pm 25.7 25.2 21.4 77 2.8 SE 26 35 14 19 1015.0 1015.0 0.0
21/11:30am 26.2 26.2 21.6 76 3.1 SE 24 33 13 18 1015.2 1015.2 0.0
21/11:00am 25.2 24.0 20.9 77 2.8 SE 28 39 15 21 1015.4 1015.4 0.0
21/10:30am 25.9 24.8 21.1 75 3.2 SE 28 43 15 23 1015.4 1015.4 0.0
21/10:00am 25.6 25.0 20.6 74 3.3 SE 24 33 13 18 1015.6 1015.6 0.0
21/09:30am 25.4 23.5 20.2 73 3.4 SE 30 43 16 23 1015.6 1015.6 0.0
21/09:00am 25.2 23.3 20.2 74 3.3 SE 30 39 16 21 1015.6 1015.6 0.0
21/08:30am 24.7 25.3 20.2 76 2.9 SE 17 30 9 16 1015.4 1015.4 0.0
21/08:00am 24.4 23.9 19.9 76 2.9 SE 22 33 12 18 1015.2 1015.2 0.0
21/07:30am 24.1 23.9 19.4 75 3.0 SE 19 32 10 17 1014.8 1014.8 0.0
21/07:00am 23.8 22.7 19.5 77 2.8 SE 24 33 13 18 1014.5 1014.5 0.0
21/06:30am 24.0 23.0 19.7 77 2.8 SE 24 41 13 22 1014.3 1014.3 0.0
21/06:00am 24.0 24.4 19.9 78 2.6 SE 17 32 9 17 1014.2 1014.2 0.0
21/05:30am 23.8 25.9 20.1 80 2.4 SE 9 28 5 15 1014.0 1014.0 0.0
21/05:00am 23.5 26.6 19.6 79 2.5 SE 2 24 1 13 1013.9 1013.9 0.0
21/04:30am 23.5 26.9 19.4 78 2.6 CALM 0 0 0 0 1013.9 1013.9 0.0
21/04:00am 23.6 26.2 19.3 77 2.7 SE 4 24 2 13 1013.8 1013.8 0.0
21/03:30am 23.6 26.5 19.1 76 2.9 SE 2 24 1 13 1013.8 1013.8 0.0
21/03:00am 23.7 26.7 19.2 76 2.9 SE 2 26 1 14 1013.8 1013.8 0.0
21/02:30am 23.8 24.2 19.1 75 3.0 SE 15 32 8 17 1013.8 1013.8 0.0
21/02:00am 24.0 23.2 19.3 75 3.0 SE 22 35 12 19 1014.3 1014.3 0.0
21/01:30am 23.8 25.6 19.5 77 2.8 SE 9 32 5 17 1014.6 1014.6 0.0
21/01:00am 23.9 25.9 19.2 75 3.0 SE 7 26 4 14 1015.0 1015.0 0.0
21/12:30am 23.8 24.7 19.3 76 2.9 SE 13 28 7 15 1015.1 1015.1 0.0
21/12:00am 23.8 24.0 19.3 76 2.9 SE 17 33 9 18 1015.1 1015.1 0.0
 
Date/Time
EST
Temp
°C
App
Temp
°C
Dew
Point
°C
Rel
Hum
%
Delta-T
°C
Wind Press
QNH
hPa
Press
MSL
hPa
Rain since
9am
mm
Dir  Spd
km/h
Gust
km/h
Spd
kts
Gust
kts
20/11:30pm 23.8 23.7 19.5 77 2.8 SE 19 37 10 20 1015.2 1015.2 0.0
20/11:00pm 23.5 25.5 19.2 77 2.7 SE 7 33 4 18 1015.3 1015.3 0.0
20/10:30pm 23.6 24.5 19.3 77 2.7 SE 13 32 7 17 1015.4 1015.4 0.0
20/10:00pm 23.9 23.5 19.4 76 2.9 SE 20 33 11 18 1015.5 1015.5 0.0
20/09:30pm 23.8 23.4 19.3 76 2.9 SE 20 35 11 19 1015.4 1015.4 0.0
20/09:00pm 23.7 23.3 19.4 77 2.7 SE 20 37 11 20 1015.3 1015.3 0.0
20/08:30pm 23.7 24.4 19.6 78 2.6 SE 15 33 8 18 1014.9 1014.9 0.0
20/08:00pm 23.6 24.1 20.1 81 2.3 SE 17 30 9 16 1014.6 1014.6 0.0
20/07:30pm 23.5 26.2 20.6 84 1.9 SE 7 26 4 14 1014.3 1014.3 0.0
20/07:00pm 23.6 26.9 19.9 80 2.4 SE 2 24 1 13 1014.0 1014.0 0.0
20/06:30pm 23.8 25.9 20.1 80 2.4 SE 9 28 5 15 1013.8 1013.8 0.0
20/06:00pm 24.0 25.1 19.7 77 2.8 SE 13 30 7 16 1013.7 1013.7 0.0
20/05:30pm 24.3 26.7 20.0 77 2.8 SE 7 26 4 14 1013.6 1013.6 0.0
20/05:00pm 24.1 25.8 20.2 79 2.5 SE 11 28 6 15 1013.3 1013.3 0.0
20/04:30pm 24.6 26.1 20.5 78 2.7 SE 13 30 7 16 1013.3 1013.3 0.0
20/04:00pm 24.7 26.4 20.2 76 2.9 SE 11 26 6 14 1013.2 1013.2 0.0
20/03:30pm 25.1 25.1 19.7 72 3.5 SE 19 33 10 18 1012.9 1012.9 0.0
20/03:00pm 25.2 24.9 19.6 71 3.6 SE 20 33 11 18 1013.0 1013.0 0.0
20/02:30pm 24.9 24.7 19.7 73 3.4 SSE 20 35 11 19 1013.2 1013.2 0.0
20/02:00pm 25.5 25.5 20.1 72 3.5 SE 20 35 11 19 1013.4 1013.4 0.0
20/01:30pm 25.6 24.1 20.2 72 3.5 SE 28 39 15 21 1013.7 1013.7 0.0
20/01:00pm 25.4 25.6 20.6 75 3.1 SE 20 33 11 18 1013.9 1013.9 0.0
20/12:30pm 25.7 26.0 20.3 72 3.5 SE 19 30 10 16 1014.2 1014.2 0.0
20/12:00pm 25.3 24.1 20.1 73 3.4 SE 26 35 14 19 1014.6 1014.6 0.0
20/11:30am 25.1 23.9 20.1 74 3.2 SE 26 37 14 20 1014.9 1014.9 0.0
20/11:00am 24.9 24.6 20.4 76 2.9 SE 22 33 12 18 1015.1 1015.1 0.0
20/10:30am 24.7 24.8 20.4 77 2.8 SE 20 32 11 17 1015.4 1015.4 0.0
20/10:00am 24.5 24.5 20.2 77 2.8 SE 20 32 11 17 1015.4 1015.4 0.0
20/09:30am 24.5 25.0 20.0 76 2.9 SE 17 35 9 19 1015.2 1015.2 0.0
20/09:00am 24.8 24.8 19.8 74 3.2 SE 19 33 10 18 1015.0 1015.0 0.0
20/08:30am 24.4 24.7 19.5 74 3.1 SE 17 33 9 18 1014.8 1014.8 0.0

Other Formats:

Comma delimited format used in spreadsheet applications
http://www.bom.gov.au/fwo/IDQ60801/IDQ60801.94186.axf

JavaScript Object Notation format (JSON) in row-major order
http://www.bom.gov.au/fwo/IDQ60801/IDQ60801.94186.json